• Join FlightAware (Why Join?)
  • Login
  • US Flag 
07:05AM EST


 

Airport Tracker/Info


-or-


 

Live Flight TrackerFlight Track Log ✈ FLG3729 ✈ 11-Aug-2013 ✈ KALB - KDTW

Flight Track Log - Related Links

Times and Time Zones

All times are in EDT time to prevent confusion due to time zone crossing. See the FLG3729 flight status page for this flight to view local times or setup timezone preferences in your user account.

Time Position Orientation Groundspeed Altitude Reporting Facility
EDT Latitude Longitude Course Direction KTS MPH feet Rate Location/Type
06:13AM 42.7672 -73.8061 331° Northwest 171 197 1,300  Level Boston Center
06:14AM 42.8169 -73.8439 331° Northwest 207 238 3,700 2,226 Climbing Boston Center
06:15AM 42.8619 -73.9017 317° Northwest 248 285 5,900 2,773 Climbing Boston Center
06:16AM 42.9133 -73.9653 318° Northwest 256 295 9,200 2,579 Climbing Boston Center
06:17AM 42.9708 -74.0319 320° Northwest 268 308 11,100 1,623 Climbing Boston Center
06:18AM 43.0300 -74.1072 317° Northwest 276 318 12,500 1,261 Climbing Boston Center
06:19AM 43.0533 -74.2217 286° West 301 346 13,600 1,424 Climbing Boston Center
06:20AM 43.0597 -74.3442 274° West 325 374 15,300 1,488 Climbing Boston Center
06:21AM 43.0681 -74.4664 275° West 330 380 16,600 1,279 Climbing Boston Center
06:22AM 43.0761 -74.5889 275° West 330 380 17,900 1,059 Climbing Boston Center
06:23AM 43.0822 -74.7114 274° West 330 380 18,700 700 Climbing Boston Center
06:24AM 43.0919 -74.8397 276° West 335 386 19,300 807 Climbing Boston Center
06:25AM 43.0997 -74.9681 275° West 335 386 20,300 1,000 Climbing Boston Center
06:26AM 43.1053 -75.0933 274° West 335 386 21,300 900 Climbing Boston Center
06:27AM 43.1106 -75.2244 273° West 335 386 22,100 661 Climbing Boston Center
06:28AM 43.1175 -75.3614 274° West 352 405 22,600 443 Climbing Boston Center
06:29AM 43.1269 -75.4814 276° West 359 413 23,000 590 Climbing Boston Center
06:30AM 43.1333 -75.6239 274° West 369 425 23,800 915 Climbing Boston Center
06:31AM 43.1397 -75.7608 274° West 369 425 24,800 821 Climbing Boston Center
06:32AM 43.1464 -75.8950 274° West 369 425 25,400 537 Climbing Boston Center
06:34AM 43.1536 -76.0636 273° West 364 419 26,000 517 Climbing Boston Center
06:36AM 43.1456 -76.4028 268° West 368 423 27,200 523 Climbing Cleveland Center
06:37AM 43.1339 -76.5458 264° West 373 429 27,700 400 Climbing Cleveland Center
06:38AM 43.1200 -76.6864 262° West 373 429 28,000 150 Climbing Cleveland Center
06:39AM 43.1075 -76.8178 263° West 373 429 28,000  Level Cleveland Center
06:40AM 43.0956 -76.9664 264° West 383 441 28,000  Level Cleveland Center
06:41AM 43.0814 -77.1181 263° West 398 458 28,000  Level Cleveland Center
06:42AM 43.0672 -77.2694 263° West 403 464 28,000  Level Cleveland Center
06:43AM 43.0547 -77.4178 263° West 403 464 28,000  Level Cleveland Center
06:44AM 43.0397 -77.5636 262° West 403 464 28,000  Level Cleveland Center
06:45AM 43.0247 -77.7092 262° West 403 464 28,000  Level Cleveland Center
06:46AM 43.0117 -77.8547 263° West 393 452 28,000  Level Cleveland Center
06:47AM 42.9961 -77.9972 262° West 388 447 28,000  Level Cleveland Center
06:48AM 42.9825 -78.1397 263° West 388 447 28,000  Level Cleveland Center
06:49AM 42.9667 -78.2822 261° West 388 447 28,000  Level Cleveland Center
06:50AM 42.9528 -78.4275 263° West 388 447 28,000  Level Cleveland Center
06:51AM 42.9386 -78.5697 262° West 388 447 28,000  Level Cleveland Center
06:52AM 42.9203 -78.7119 260° West 388 447 28,000  Level Cleveland Center
06:53AM 42.9017 -78.8572 260° West 388 447 28,000  Level Cleveland Center
06:54AM 42.8789 -79.0136 259° West 388 447 28,000  Level Cleveland Center
06:55AM 42.8578 -79.1558 259° West 393 452 28,000  Level Cleveland Center
06:56AM 42.8386 -79.3006 260° West 393 452 28,000  Level Cleveland Center
06:57AM 42.8131 -79.4483 257° West 393 452 28,000  Level Cleveland Center
06:58AM 42.7936 -79.5931 260° West 393 452 28,000  Level Cleveland Center
06:59AM 42.7697 -79.7403 258° West 393 452 28,000  Level Cleveland Center
07:00AM 42.7519 -79.8878 261° West 393 452 28,000  Level Cleveland Center
07:01AM 42.7422 -80.0264 265° West 400 460 28,000  Level Cleveland Center
07:02AM 42.7389 -80.1761 268° West 400 460 28,000  Level Cleveland Center
07:03AM 42.7308 -80.3400 266° West 405 466 28,000  Level Cleveland Center
07:04AM 42.7250 -80.4928 267° West 405 466 28,000  Level Cleveland Center
07:05AM 42.7186 -80.6425 267° West 394 453 28,000  Level Cleveland Center
07:06AM 42.7122 -80.7978 267° West 404 465 28,000  Level Cleveland Center
07:07AM 42.6994 -80.9447 263° West 404 465 28,000 -300 Level Cleveland Center
07:08AM 42.6842 -81.0972 262° West 411 473 27,400 -700 Descending Cleveland Center
07:09AM 42.6644 -81.2553 260° West 418 481 26,600 -1,050 Descending Cleveland Center
07:10AM 42.6469 -81.4131 261° West 428 493 25,300 -1,600 Descending Cleveland Center
07:11AM 42.6289 -81.5653 261° West 423 487 23,400 -2,000 Descending Cleveland Center
07:12AM 42.6108 -81.7200 261° West 423 487 21,300 -1,950 Descending Cleveland Center
07:13AM 42.5928 -81.8494 259° West 407 468 19,500 -1,800 Descending Cleveland Center
07:14AM 42.5767 -81.9958 262° West 401 461 17,700 -1,650 Descending Cleveland Center
07:15AM 42.5603 -82.1250 260° West 382 440 16,200 -1,588 Descending Cleveland Center
07:16AM 42.5483 -82.2347 262° West 354 407 15,000 -1,565 Descending Cleveland Center
07:17AM 42.5292 -82.3947 261° West 358 412 13,200 -1,343 Descending Cleveland Center
07:18AM 42.5106 -82.5294 259° West 340 391 12,000 -934 Descending Cleveland Center
07:19AM 42.4797 -82.6242 246° West 265 305 11,300 -836 Descending Cleveland Center
07:20AM 42.4486 -82.7189 246° West 271 312 10,300 -1,082 Descending Cleveland Center
07:21AM 42.4156 -82.8106 244° Southwest 266 306 9,100 -1,377 Descending Cleveland Center
07:22AM 42.3972 -82.9028 255° West 265 305 7,500 -1,041 Descending Cleveland Center
07:23AM 42.3744 -82.9892 250° West 266 306 7,000 -900 Descending Cleveland Center
07:24AM 42.3517 -83.0836 252° West 266 306 5,700 -1,000 Descending Cleveland Center
07:25AM 42.3350 -83.1758 256° West 260 299 5,000 -1,073 Descending Cleveland Center
07:26AM 42.3144 -83.2564 251° West 176 203 3,500 -1,306 Descending Cleveland Center
07:27AM 42.2781 -83.2942 218° Southwest 144 166 2,300 -1,033 Descending Cleveland Center
07:28AM 42.2464 -83.3153 206° Southwest 136 157 1,400 -885 Descending Cleveland Center
07:30AM 42.2124 -83.3534 246° West  Level Estimated
07:37AM 42.2124 -83.3534 246° West  Level Estimated